Station Historical Data
Daily Summary for February 13, 2019 Units:  Metric    English   Both
« Previous Day
Next Day »
Daily Weekly Monthly Yearly Custom
  High: Low: Average:
Temperature: -17.8 °C -16.7 °C -13.9 °C
Dew Point: -17.8 °C -18.7 °C -17.6 °C
Humidity: Humidity % 46 % 63 %
Wind Speed: 0 km/h 0 km/h 7.6 km/h
Wind Gust: 0 km/h - -
Wind:- - SSE
Pressure: 0 hPa 34862.3 hPa -
Precipitation: 0 mm    
Historical Graphs
 
 
Tabular Data for February 13, 2019
Time Temperature Dew Point Pressure Wind Wind Speed Wind Gust Humidity Rainfall Rate (Hourly) solar Conditions
-17.8 °C -17.8 °C 0 hPa Calm     Humidity % 0 mm SolarRadiationWatts/m^2 W/m2 Conditions
00:03 -14.3 °C -18.2 °C 34862.3 hPa ENE 26.9 km/h 10.3 km/h 61 % 0 mm 0.00 W/m2 CLR
00:08 -14.4 °C -18.2 °C 34862.3 hPa NNE 23.8 km/h 8.5 km/h 61 % 0 mm 0.00 W/m2 CLR
00:13 -14.4 °C -18.2 °C 34865.6 hPa ENE 10.3 km/h 8 km/h 62 % 0 mm 0.00 W/m2 CLR
00:19 -14.5 °C -18.2 °C 34865.6 hPa ESE 6 km/h 3.4 km/h 62 % 0 mm 0.00 W/m2 CLR
00:24 -14.6 °C -18.3 °C 34869 hPa East 12.9 km/h 9.7 km/h 62 % 0 mm 0.00 W/m2 CLR
00:28 -14.7 °C -18.3 °C 34869 hPa East 18.2 km/h 10.9 km/h 63 % 0 mm 0.00 W/m2 CLR
00:34 -14.7 °C -18.3 °C 34869 hPa ENE 12.9 km/h 6.8 km/h 63 % 0 mm 0.00 W/m2 CLR
00:39 -14.8 °C -18.4 °C 34869 hPa ENE 6 km/h 0.8 km/h 63 % 0 mm 0.00 W/m2 CLR
00:43 -14.8 °C -18.4 °C 34872.4 hPa Calm     63 % 0 mm 0.00 W/m2 CLR
00:49 -14.8 °C -18.4 °C 34875.8 hPa NE 5.1 km/h 1.8 km/h 63 % 0 mm 0.00 W/m2 CLR
00:54 -14.8 °C -18.4 °C 34875.8 hPa NE 6 km/h 4.2 km/h 63 % 0 mm 0.00 W/m2 CLR
00:58 -14.9 °C -18.4 °C 34879.2 hPa NE 10.3 km/h 6 km/h 64 % 0 mm 0.00 W/m2 CLR
01:04 -14.9 °C -18.4 °C 34875.8 hPa NE 9 km/h 5.1 km/h 64 % 0 mm 0.00 W/m2 CLR
01:09 -14.9 °C -18.4 °C 34879.2 hPa ENE 10.3 km/h 7.6 km/h 64 % 0 mm 0.00 W/m2 CLR
01:13 -14.9 °C -18.4 °C 34879.2 hPa ENE 9 km/h 6.4 km/h 64 % 0 mm 0.00 W/m2 CLR
01:19 -15 °C -18.5 °C 34879.2 hPa ENE 10.3 km/h 7.6 km/h 64 % 0 mm 0.00 W/m2 CLR
01:24 -15.1 °C -18.5 °C 34879.2 hPa ENE 9 km/h 4.3 km/h 64 % 0 mm 0.00 W/m2 CLR
01:29 -15.1 °C -18.5 °C 34882.6 hPa ENE 6 km/h 3.7 km/h 64 % 0 mm 0.00 W/m2 CLR
01:33 -15.1 °C -18.6 °C 34882.6 hPa ENE 9 km/h 5.5 km/h 64 % 0 mm 0.00 W/m2 CLR
01:38 -15.1 °C -18.5 °C 34886 hPa NE 9 km/h 6.4 km/h 65 % 0 mm 0.00 W/m2 CLR
01:43 -15.2 °C -18.5 °C 34886 hPa NE 9 km/h 5 km/h 65 % 0 mm 0.00 W/m2 CLR
01:48 -15.2 °C -18.6 °C 34882.6 hPa NE 9 km/h 4.3 km/h 65 % 0 mm 0.00 W/m2 CLR
01:53 -15.2 °C -18.5 °C 34882.6 hPa East 12.9 km/h 7.7 km/h 66 % 0 mm 0.00 W/m2 CLR
01:58 -15.3 °C -18.5 °C 34882.6 hPa East 12.9 km/h 7.7 km/h 66 % 0 mm 0.00 W/m2 CLR
02:03 -15.3 °C -18.5 °C 34886 hPa East 9 km/h 6 km/h 66 % 0 mm 0.00 W/m2 CLR
02:08 -15.3 °C -18.6 °C 34889.3 hPa East 9 km/h 6.3 km/h 66 % 0 mm 0.00 W/m2 CLR
02:14 -15.4 °C -18.6 °C 34892.7 hPa East 9 km/h 5 km/h 66 % 0 mm 0.00 W/m2 CLR
02:18 -15.4 °C -18.6 °C 34896.1 hPa East 6 km/h 3.7 km/h 66 % 0 mm 0.00 W/m2 CLR
02:23 -15.4 °C -18.6 °C 34896.1 hPa East 9 km/h 5 km/h 67 % 0 mm 0.00 W/m2 CLR
02:29 -15.4 °C -18.6 °C 34896.1 hPa East 12.9 km/h 6.8 km/h 67 % 0 mm 0.00 W/m2 CLR
02:33 -15.4 °C -18.6 °C 34899.5 hPa East 9 km/h 5.5 km/h 67 % 0 mm 0.00 W/m2 CLR
02:38 -15.5 °C -18.6 °C 34899.5 hPa East 9 km/h 5.1 km/h 67 % 0 mm 0.00 W/m2 CLR
02:44 -15.5 °C -18.6 °C 34899.5 hPa East 9 km/h 4.7 km/h 67 % 0 mm 0.00 W/m2 CLR
02:49 -15.6 °C -18.6 °C 34902.9 hPa East 9 km/h 4.2 km/h 68 % 0 mm 0.00 W/m2 CLR
02:53 -15.6 °C -18.6 °C 34902.9 hPa East 7.7 km/h 3.4 km/h 68 % 0 mm 0.00 W/m2 CLR
02:59 -15.7 °C -18.5 °C 34906.3 hPa East 6 km/h 3.9 km/h 69 % 0 mm 0.00 W/m2 CLR
03:04 -15.7 °C -18.6 °C 34902.9 hPa East 5.1 km/h 2.9 km/h 69 % 0 mm 0.00 W/m2 CLR
03:08 -15.7 °C -18.6 °C 34902.9 hPa East 6 km/h 3.9 km/h 69 % 0 mm 0.00 W/m2 CLR
03:14 -15.7 °C -18.6 °C 34906.3 hPa East 3.1 km/h 2.3 km/h 69 % 0 mm 0.00 W/m2 CLR
03:19 -15.7 °C -18.5 °C 34902.9 hPa East 9 km/h 6 km/h 70 % 0 mm 0.00 W/m2 CLR
03:23 -15.8 °C -18.5 °C 34902.9 hPa East 12.9 km/h 6.4 km/h 70 % 0 mm 0.00 W/m2 CLR
03:29 -15.8 °C -18.5 °C 34902.9 hPa SE 10.3 km/h 6.8 km/h 70 % 0 mm 0.00 W/m2 CLR
03:34 -15.8 °C -18.5 °C 34902.9 hPa SE 9 km/h 5.6 km/h 70 % 0 mm 0.00 W/m2 CLR
03:38 -15.8 °C -18.4 °C 34902.9 hPa SE 9 km/h 5 km/h 71 % 0 mm 0.00 W/m2 CLR
03:44 -15.8 °C -18.4 °C 34902.9 hPa SE 6 km/h 3.1 km/h 71 % 0 mm 0.00 W/m2 CLR
03:49 -15.8 °C -18.4 °C 34906.3 hPa SE 6 km/h 4.7 km/h 71 % 0 mm 0.00 W/m2 CLR
03:53 -15.8 °C -18.5 °C 34906.3 hPa SE 5.1 km/h 2.1 km/h 71 % 0 mm 0.00 W/m2 CLR
03:59 -15.9 °C -18.5 °C 34909.7 hPa SE 6 km/h 3.1 km/h 71 % 0 mm 0.00 W/m2 CLR
04:04 -15.9 °C -18.4 °C 34916.4 hPa SE 6 km/h 2.9 km/h 72 % 0 mm 0.00 W/m2 CLR
04:08 -15.9 °C -18.4 °C 34913 hPa SE 6 km/h 1.8 km/h 72 % 0 mm 0.00 W/m2 CLR
04:13 -15.9 °C -18.4 °C 34909.7 hPa Calm     72 % 0 mm 0.00 W/m2 CLR
04:18 -15.9 °C -18.5 °C 34913 hPa Calm     72 % 0 mm 0.00 W/m2 CLR
04:24 -16 °C -18.5 °C 34916.4 hPa Calm     72 % 0 mm 0.00 W/m2 CLR
04:28 -16 °C -18.6 °C 34916.4 hPa Calm     72 % 0 mm 0.00 W/m2 CLR
04:33 -16.1 °C -18.6 °C 34916.4 hPa Calm     72 % 0 mm 0.00 W/m2 CLR
04:39 -16.1 °C -18.6 °C 34919.8 hPa SE 6 km/h 3.4 km/h 73 % 0 mm 0.00 W/m2 CLR
04:43 -16.2 °C -18.6 °C 34923.2 hPa SE 6 km/h 4.2 km/h 73 % 0 mm 0.00 W/m2 CLR
04:48 -16.2 °C -18.7 °C 34923.2 hPa SE 6 km/h 4.3 km/h 73 % 0 mm 0.00 W/m2 CLR
04:54 -16.3 °C -18.6 °C 34919.8 hPa SE 6 km/h 2.9 km/h 74 % 0 mm 0.00 W/m2 CLR
04:58 -16.3 °C -18.6 °C 34926.6 hPa SE 6 km/h 4.3 km/h 74 % 0 mm 0.00 W/m2 CLR
05:03 -16.3 °C -18.6 °C 34930 hPa SE 6 km/h 3.9 km/h 75 % 0 mm 0.00 W/m2 CLR
05:09 -16.4 °C -18.5 °C 34933.4 hPa SE 9 km/h 6.3 km/h 76 % 0 mm 0.00 W/m2 CLR
05:13 -16.5 °C -18.6 °C 34933.4 hPa SE 9 km/h 5.5 km/h 76 % 0 mm 0.00 W/m2 CLR
05:18 -16.5 °C -18.6 °C 34940.1 hPa SE 6 km/h 4.3 km/h 76 % 0 mm 0.00 W/m2 CLR
05:24 -16.6 °C -18.6 °C 34943.5 hPa SE 6 km/h 3.9 km/h 77 % 0 mm 0.00 W/m2 CLR
05:29 -16.6 °C -18.7 °C 34943.5 hPa SE 9 km/h 6.3 km/h 77 % 0 mm 0.00 W/m2 CLR
05:33 -16.7 °C -18.7 °C 34946.9 hPa SE 9 km/h 5.1 km/h 77 % 0 mm 0.00 W/m2 CLR
05:39 -16.7 °C -18.6 °C 34950.3 hPa SE 9 km/h 5.5 km/h 78 % 0 mm 0.00 W/m2 CLR
05:44 -16.7 °C -18.6 °C 34946.9 hPa SE 6 km/h 3.9 km/h 78 % 0 mm 0.00 W/m2 CLR
05:48 -16.7 °C -18.6 °C 34950.3 hPa SE 9 km/h 3.4 km/h 78 % 0 mm 0.00 W/m2 CLR
05:54 -16.7 °C -18.7 °C 34946.9 hPa Calm     77 % 0 mm 0.00 W/m2 CLR
05:59 -16.6 °C -18.7 °C 34946.9 hPa SE 5.1 km/h 1.3 km/h 77 % 0 mm 0.00 W/m2 CLR
06:03 -16.6 °C -18.6 °C 34950.3 hPa SE 6 km/h 2.9 km/h 77 % 0 mm 0.00 W/m2 CLR
06:09 -16.5 °C -18.5 °C 34957.1 hPa SE 6 km/h 3.7 km/h 77 % 0 mm 0.00 W/m2 CLR
06:14 -16.5 °C -18.6 °C 34957.1 hPa SE 6 km/h 3.1 km/h 76 % 0 mm 0.00 W/m2 CLR
06:19 -16.4 °C -18.5 °C 34957.1 hPa SE 3.1 km/h 1.3 km/h 76 % 0 mm 0.00 W/m2 CLR
06:24 -16.4 °C -18.6 °C 34957.1 hPa SE 3.1 km/h 1.8 km/h 75 % 0 mm 0.00 W/m2 CLR
06:29 -16.3 °C -18.6 °C 34963.8 hPa SE 6 km/h 3.7 km/h 75 % 0 mm 0.00 W/m2 CLR
06:34 -16.3 °C -18.5 °C 34960.5 hPa SE 6 km/h 4.7 km/h 75 % 0 mm 0.00 W/m2 CLR
06:39 -16.3 °C -18.5 °C 34963.8 hPa SE 6 km/h 1.6 km/h 75 % 0 mm 0.00 W/m2 CLR
06:43 -16.3 °C -18.5 °C 34960.5 hPa Calm     75 % 0 mm 0.00 W/m2 CLR
06:48 -16.3 °C -18.6 °C 34960.5 hPa SE 3.1 km/h 1.6 km/h 74 % 0 mm 0.00 W/m2 CLR
06:53 -16.3 °C -18.6 °C 34963.8 hPa Calm     74 % 0 mm 0.00 W/m2 CLR
06:58 -16.3 °C -18.6 °C 34967.2 hPa Calm     74 % 0 mm 0.00 W/m2 CLR
07:03 -16.3 °C -18.6 °C 34970.6 hPa Calm     74 % 0 mm 0.00 W/m2 CLR
07:08 -16.3 °C -18.5 °C 34974 hPa Calm     75 % 0 mm 0.00 W/m2 CLR
07:13 -16.3 °C -18.6 °C 34980.8 hPa Calm     75 % 0 mm 0.00 W/m2 CLR
07:19 -16.3 °C -18.6 °C 34980.8 hPa Calm     75 % 0 mm 0.00 W/m2 CLR
07:23 -16.4 °C -18.7 °C 34980.8 hPa Calm     75 % 0 mm 0.00 W/m2 CLR
07:28 -16.5 °C -18.6 °C 34987.5 hPa SE 6 km/h 2.9 km/h 76 % 0 mm 5.00 W/m2 CLR
07:34 -16.5 °C -18.5 °C 34987.5 hPa SE 6 km/h 3.9 km/h 77 % 0 mm 9.00 W/m2 CLR
07:38 -16.5 °C -18.4 °C 34994.3 hPa SE 9 km/h 4.7 km/h 78 % 0 mm 11.00 W/m2 FEW
07:43 -16.5 °C -18.4 °C 34997.7 hPa SE 6 km/h 3.7 km/h 78 % 0 mm 14.00 W/m2 SCT
07:49 -16.5 °C -18.4 °C 35004.5 hPa SE 6 km/h 2.9 km/h 78 % 0 mm 18.00 W/m2 SCT
07:53 -16.5 °C -18.4 °C 35004.5 hPa SE 6 km/h 3.9 km/h 78 % 0 mm 23.00 W/m2 SCT
07:59 -16.4 °C -18.3 °C 35004.5 hPa SE 6 km/h 4.7 km/h 78 % 0 mm 28.00 W/m2 SCT
08:04 -16.3 °C -18.3 °C 35004.5 hPa SE 3.1 km/h 0.3 km/h 77 % 0 mm 35.00 W/m2 SCT
08:08 -16.2 °C -18.2 °C 35007.9 hPa Calm     77 % 0 mm 44.00 W/m2 SCT
08:14 -16.1 °C -18.2 °C 35014.6 hPa Calm     76 % 0 mm 53.00 W/m2 SCT
08:19 -16 °C -18.2 °C 35014.6 hPa Calm     75 % 0 mm 58.00 W/m2 SCT
08:23 -15.9 °C -18 °C 35014.6 hPa Calm     76 % 0 mm 58.00 W/m2 SCT
08:29 -15.8 °C -17.9 °C 35014.6 hPa SE 6 km/h 2.6 km/h 76 % 0 mm 69.00 W/m2 SCT
08:34 -15.8 °C -18.1 °C 35018 hPa SW 12.9 km/h 9 km/h 74 % 0 mm 97.00 W/m2 SCT
08:38 -15.8 °C -18.3 °C 35018 hPa SW 9 km/h 5.6 km/h 73 % 0 mm 91.00 W/m2 SCT
08:44 -15.9 °C -18.3 °C 35021.4 hPa SW 9 km/h 5.6 km/h 73 % 0 mm 98.00 W/m2 FEW
08:49 -15.9 °C -18.3 °C 35024.8 hPa SW 10.3 km/h 7.2 km/h 74 % 0 mm 67.00 W/m2 SCT
08:54 -15.9 °C -18.3 °C 35024.8 hPa SW 9 km/h 3.1 km/h 74 % 0 mm 86.00 W/m2 SCT
08:59 -15.9 °C -18.3 °C 35028.2 hPa SW 9 km/h 5.6 km/h 74 % 0 mm 141.00 W/m2 SCT
09:04 -15.9 °C -18.2 °C 35024.8 hPa West 10.3 km/h 8 km/h 75 % 0 mm 102.00 W/m2 SCT
09:09 -15.9 °C -18.1 °C 35031.6 hPa WSW 9 km/h 7.6 km/h 75 % 0 mm 128.00 W/m2 SCT
09:14 -15.9 °C -18.1 °C 35031.6 hPa WSW 10.3 km/h 7.7 km/h 75 % 0 mm 153.00 W/m2 SCT
09:18 -15.8 °C -18 °C 35031.6 hPa WSW 10.3 km/h 7.6 km/h 75 % 0 mm 135.00 W/m2 SCT
09:23 -15.7 °C -18 °C 35034.9 hPa WSW 10.3 km/h 7.7 km/h 74 % 0 mm 178.00 W/m2 FEW
09:28 -15.6 °C -17.9 °C 35038.3 hPa WSW 6 km/h 2.1 km/h 74 % 0 mm 209.00 W/m2 FEW
09:33 -15.4 °C -17.8 °C 35038.3 hPa WSW 9 km/h 6 km/h 74 % 0 mm 218.00 W/m2 FEW
09:38 -15.2 °C -17.7 °C 35038.3 hPa WSW 9 km/h 6 km/h 73 % 0 mm 241.00 W/m2 FEW
09:43 -15.1 °C -17.6 °C 35038.3 hPa WSW 9 km/h 6.3 km/h 73 % 0 mm 251.00 W/m2 FEW
09:48 -14.9 °C -17.4 °C 35038.3 hPa WSW 6 km/h 2.9 km/h 73 % 0 mm 262.00 W/m2 FEW
09:53 -14.8 °C -17.6 °C 35041.7 hPa NW 6 km/h 2.9 km/h 70 % 0 mm 267.00 W/m2 FEW
09:58 -14.6 °C -17.4 °C 35038.3 hPa NW 5.1 km/h 1.3 km/h 70 % 0 mm 287.00 W/m2 FEW
10:03 -14.4 °C -17.4 °C 35048.5 hPa WNW 3.1 km/h 0.3 km/h 68 % 0 mm 308.00 W/m2 CLR
10:09 -14.2 °C -17.4 °C 35045.1 hPa WNW 6 km/h 2.3 km/h 66 % 0 mm 327.00 W/m2 CLR
10:14 -13.9 °C -17.6 °C 35051.9 hPa WNW 6 km/h 1.6 km/h 63 % 0 mm 343.00 W/m2 CLR
10:18 -13.8 °C -17.3 °C 35048.5 hPa WNW 3.1 km/h 0.5 km/h 64 % 0 mm 359.00 W/m2 CLR
10:24 -13.6 °C -17.4 °C 35045.1 hPa SW 9 km/h 2.3 km/h 62 % 0 mm 306.00 W/m2 CLR
10:29 -13.5 °C -17.6 °C 35045.1 hPa WSW 10.3 km/h 6.9 km/h 60 % 0 mm 322.00 W/m2 CLR
10:33 -13.4 °C -17.5 °C 35048.5 hPa WSW 6 km/h 1.8 km/h 60 % 0 mm 311.00 W/m2 FEW
10:39 -13.4 °C -17.4 °C 35048.5 hPa SW 10.3 km/h 8.9 km/h 60 % 0 mm 376.00 W/m2 CLR
10:44 -13.3 °C -17.3 °C 35051.9 hPa SSE 6 km/h 1.6 km/h 60 % 0 mm 396.00 W/m2 CLR
10:48 -13.2 °C -17.3 °C 35051.9 hPa SSE 10.3 km/h 6.3 km/h 60 % 0 mm 376.00 W/m2 CLR
10:54 -13.2 °C -17.2 °C 35055.3 hPa SE 18.2 km/h 12.4 km/h 60 % 0 mm 341.00 W/m2 CLR
10:59 -13.1 °C -17.2 °C 35055.3 hPa ESE 12.9 km/h 8.9 km/h 60 % 0 mm 438.00 W/m2 CLR
11:03 -13.1 °C -17 °C 35051.9 hPa ENE 3.1 km/h 0.8 km/h 61 % 0 mm 427.00 W/m2 CLR
11:09 -12.9 °C -17 °C 35051.9 hPa ESE 12.9 km/h 8 km/h 60 % 0 mm 457.00 W/m2 CLR
11:14 -12.8 °C -17 °C 35051.9 hPa SE 9 km/h 3.9 km/h 59 % 0 mm 418.00 W/m2 CLR
11:19 -12.7 °C -16.9 °C 35051.9 hPa SE 11.9 km/h 7.6 km/h 59 % 0 mm 475.00 W/m2 CLR
11:24 -12.7 °C -16.9 °C 35051.9 hPa SE 6 km/h 3.4 km/h 59 % 0 mm 408.00 W/m2 CLR
11:29 -12.6 °C -16.8 °C 35055.3 hPa SE 9 km/h 3.9 km/h 59 % 0 mm 448.00 W/m2 CLR
11:34 -12.5 °C -16.9 °C 35058.6 hPa ENE 10.3 km/h 5.6 km/h 58 % 0 mm 436.00 W/m2 FEW
11:39 -12.4 °C -16.8 °C 35058.6 hPa ESE 12.9 km/h 6.4 km/h 58 % 0 mm 496.00 W/m2 CLR
11:43 -12.4 °C -16.8 °C 35062 hPa ESE 3.1 km/h 1 km/h 58 % 0 mm 490.00 W/m2 CLR
11:48 -12.4 °C -16.9 °C 35055.3 hPa ESE 12.9 km/h 8.2 km/h 57 % 0 mm 397.00 W/m2 CLR
11:53 -12.4 °C -16.9 °C 35062 hPa ESE 18.2 km/h 15.8 km/h 57 % 0 mm 425.00 W/m2 CLR
11:58 -12.4 °C -16.8 °C 35055.3 hPa NNE 15.6 km/h 9 km/h 58 % 0 mm 469.00 W/m2 CLR
12:03 -12.4 °C -16.9 °C 35048.5 hPa ENE 15 km/h 9.7 km/h 57 % 0 mm 483.00 W/m2 CLR
12:08 -12.4 °C -17 °C 35048.5 hPa NE 23.8 km/h 14.2 km/h 57 % 0 mm 482.00 W/m2 CLR
12:13 -12.4 °C -17 °C 35041.7 hPa ENE 20.8 km/h 10.1 km/h 57 % 0 mm 515.00 W/m2 CLR
12:18 -12.4 °C -17.1 °C 35045.1 hPa ESE 9 km/h 5.5 km/h 56 % 0 mm 520.00 W/m2 CLR
12:24 -12.4 °C -16.9 °C 35041.7 hPa ENE 9 km/h 6 km/h 57 % 0 mm 506.00 W/m2 CLR
12:28 -12.3 °C -16.9 °C 35038.3 hPa SSE 9 km/h 3.7 km/h 56 % 0 mm 487.00 W/m2 CLR
12:33 -12 °C -16.8 °C 35038.3 hPa ENE 18.2 km/h 11.6 km/h 55 % 0 mm 452.00 W/m2 CLR
12:39 -11.9 °C -16.9 °C 35038.3 hPa SSE 9 km/h 5.1 km/h 54 % 0 mm 417.00 W/m2 CLR
12:43 -11.8 °C -17 °C 35038.3 hPa SSE 17.9 km/h 10.1 km/h 53 % 0 mm 408.00 W/m2 CLR
12:48 -11.8 °C -16.9 °C 35038.3 hPa SE 15 km/h 8.9 km/h 53 % 0 mm 403.00 W/m2 FEW
12:54 -11.8 °C -16.9 °C 35038.3 hPa SE 11.9 km/h 6.3 km/h 53 % 0 mm 388.00 W/m2 FEW
12:58 -11.8 °C -16.9 °C 35034.9 hPa SE 6 km/h 0.5 km/h 53 % 0 mm 362.00 W/m2 FEW
13:03 -11.6 °C -16.7 °C 35031.6 hPa ESE 12.9 km/h 7.2 km/h 53 % 0 mm 360.00 W/m2 FEW
13:09 -11.6 °C -16.8 °C 35028.2 hPa ESE 18.2 km/h 9.7 km/h 52 % 0 mm 401.00 W/m2 FEW
13:13 -11.5 °C -16.8 °C 35024.8 hPa NE 12.9 km/h 10.1 km/h 52 % 0 mm 452.00 W/m2 FEW
13:18 -11.6 °C -16.8 °C 35021.4 hPa ESE 18.2 km/h 11.6 km/h 52 % 0 mm 490.00 W/m2 CLR
13:24 -11.7 °C -16.8 °C 35021.4 hPa NE 9 km/h 4.3 km/h 53 % 0 mm 489.00 W/m2 CLR
13:29 -11.5 °C -16.6 °C 35021.4 hPa NE 18.2 km/h 11.1 km/h 53 % 0 mm 487.00 W/m2 CLR
13:33 -11.5 °C -16.8 °C 35024.8 hPa SE 20.8 km/h 15.8 km/h 52 % 0 mm 492.00 W/m2 CLR
13:39 -11.6 °C -16.8 °C 35024.8 hPa East 18.2 km/h 14 km/h 52 % 0 mm 480.00 W/m2 CLR
13:44 -11.6 °C -16.7 °C 35018 hPa NNW 10.3 km/h 6.9 km/h 53 % 0 mm 473.00 W/m2 CLR
13:48 -11.4 °C -16.6 °C 35018 hPa SE 10.3 km/h 6.9 km/h 53 % 0 mm 468.00 W/m2 CLR
13:54 -11.3 °C -16.6 °C 35014.6 hPa SE 10.3 km/h 9 km/h 52 % 0 mm 464.00 W/m2 CLR
13:59 -11.2 °C -16.8 °C 35014.6 hPa SE 11.9 km/h 8 km/h 50 % 0 mm 385.00 W/m2 CLR
14:04 -11.2 °C -16.8 °C 35007.9 hPa SE 10.3 km/h 5.5 km/h 50 % 0 mm 461.00 W/m2 CLR
14:09 -11.2 °C -16.9 °C 35007.9 hPa SSE 10.3 km/h 5.1 km/h 49 % 0 mm 452.00 W/m2 CLR
14:14 -11.1 °C -16.8 °C 35007.9 hPa SSW 10.3 km/h 6.3 km/h 49 % 0 mm 443.00 W/m2 CLR
14:17 -11 °C -16.8 °C 35007.9 hPa SE 10.3 km/h 6.8 km/h 49 % 0 mm 439.00 W/m2 CLR
14:23 -11.1 °C -17.2 °C 35004.5 hPa East 11.9 km/h 5.5 km/h 47 % 0 mm 431.00 W/m2 CLR
14:28 -11.1 °C -17.2 °C 35004.5 hPa East 11.9 km/h 5.5 km/h 47 % 0 mm 424.00 W/m2 CLR
14:34 -11 °C -16.9 °C 35007.9 hPa SE 3.1 km/h 2.1 km/h 48 % 0 mm 417.00 W/m2 CLR
14:38 -10.9 °C -16.8 °C 35004.5 hPa NNE 10.3 km/h 6 km/h 48 % 0 mm 411.00 W/m2 CLR
14:43 -10.8 °C -16.8 °C 35007.9 hPa North 9 km/h 4.7 km/h 48 % 0 mm 404.00 W/m2 CLR
14:49 -10.7 °C -16.5 °C 35011.2 hPa SSE 9 km/h 4.7 km/h 49 % 0 mm 394.00 W/m2 CLR
14:53 -10.7 °C -16.8 °C 35014.6 hPa SE 9 km/h 6.3 km/h 47 % 0 mm 387.00 W/m2 CLR
14:58 -10.6 °C -16.7 °C 35001.1 hPa SE 6 km/h 2.6 km/h 47 % 0 mm 374.00 W/m2 CLR
15:04 -10.6 °C -16.9 °C 35004.5 hPa SE 6 km/h 2.6 km/h 46 % 0 mm 350.00 W/m2 CLR
15:08 -10.6 °C -16.9 °C 35007.9 hPa SE 11.9 km/h 8 km/h 46 % 0 mm 357.00 W/m2 CLR
15:13 -10.7 °C -17 °C 35004.5 hPa ENE 10.3 km/h 6.9 km/h 46 % 0 mm 301.00 W/m2 CLR
15:19 -10.7 °C -16.9 °C 35004.5 hPa SSE 12.9 km/h 8.2 km/h 46 % 0 mm 332.00 W/m2 CLR
15:23 -10.7 °C -16.8 °C 35001.1 hPa ESE 11.9 km/h 6.4 km/h 47 % 0 mm 329.00 W/m2 CLR
15:28 -10.7 °C -16.8 °C 35001.1 hPa East 10.3 km/h 6.3 km/h 47 % 0 mm 315.00 W/m2 CLR
15:34 -10.8 °C -16.9 °C 34997.7 hPa East 9 km/h 3.4 km/h 47 % 0 mm 302.00 W/m2 CLR
15:38 -10.8 °C -16.9 °C 34997.7 hPa East 9 km/h 3.9 km/h 47 % 0 mm 294.00 W/m2 CLR
15:43 -10.7 °C -16.9 °C 35001.1 hPa NE 12.9 km/h 9 km/h 47 % 0 mm 269.00 W/m2 CLR
15:49 -10.9 °C -17 °C 34997.7 hPa NNW 10.3 km/h 7.2 km/h 47 % 0 mm 264.00 W/m2 CLR
15:54 -10.9 °C -16.9 °C 34990.9 hPa ESE 9 km/h 7.2 km/h 48 % 0 mm 253.00 W/m2 CLR
15:58 -10.9 °C -16.9 °C 34987.5 hPa SW 7.7 km/h 5 km/h 48 % 0 mm 243.00 W/m2 CLR
16:04 -10.8 °C -16.9 °C 34990.9 hPa SW 6 km/h 1.8 km/h 47 % 0 mm 234.00 W/m2 CLR
16:09 -10.7 °C -16.8 °C 34987.5 hPa SSW 9 km/h 2.6 km/h 47 % 0 mm 220.00 W/m2 CLR
16:13 -10.6 °C -16.6 °C 34990.9 hPa South 12.9 km/h 8.2 km/h 48 % 0 mm 202.00 W/m2 CLR
16:19 -10.7 °C -16.6 °C 34994.3 hPa South 10.3 km/h 5 km/h 48 % 0 mm 185.00 W/m2 CLR
16:24 -10.7 °C -16.7 °C 34987.5 hPa SSW 6 km/h 2.9 km/h 48 % 0 mm 178.00 W/m2 CLR
16:28 -10.7 °C -16.7 °C 34987.5 hPa SW 10.3 km/h 8 km/h 48 % 0 mm 169.00 W/m2 CLR
16:34 -10.7 °C -16.8 °C 34990.9 hPa WSW 9 km/h 6 km/h 47 % 0 mm 149.00 W/m2 CLR
16:39 -10.6 °C -16.8 °C 34990.9 hPa SW 5.1 km/h 1.8 km/h 47 % 0 mm 130.00 W/m2 CLR
16:43 -10.7 °C -16.8 °C 34990.9 hPa SW 10.3 km/h 6.4 km/h 47 % 0 mm 125.00 W/m2 CLR
16:48 -10.7 °C -16.8 °C 34994.3 hPa SW 6 km/h 2.1 km/h 47 % 0 mm 109.00 W/m2 CLR
16:53 -10.6 °C -16.8 °C 34990.9 hPa SW 9 km/h 4.2 km/h 47 % 0 mm 93.00 W/m2 CLR
16:59 -10.7 °C -16.8 °C 34990.9 hPa SW 9 km/h 4.3 km/h 47 % 0 mm 77.00 W/m2 CLR
17:03 -10.7 °C -16.8 °C 34994.3 hPa SW 6 km/h 0.8 km/h 47 % 0 mm 65.00 W/m2 CLR
17:08 -10.8 °C -16.8 °C 34997.7 hPa SW 7.7 km/h 5.1 km/h 48 % 0 mm 53.00 W/m2 CLR
17:14 -10.9 °C -16.7 °C 34997.7 hPa SW 9 km/h 5.5 km/h 49 % 0 mm 42.00 W/m2 CLR
17:18 -10.9 °C -16.7 °C 34997.7 hPa SW 9 km/h 6 km/h 49 % 0 mm 35.00 W/m2 CLR
17:23 -11 °C -16.6 °C 34997.7 hPa SW 7.7 km/h 3.7 km/h 50 % 0 mm 26.00 W/m2 CLR
17:29 -11.1 °C -16.6 °C 34997.7 hPa SW 9 km/h 6 km/h 51 % 0 mm 19.00 W/m2 CLR
17:33 -11.2 °C -16.6 °C 35004.5 hPa SW 7.7 km/h 2.9 km/h 51 % 0 mm 14.00 W/m2 CLR
17:38 -11.3 °C -16.6 °C 35001.1 hPa SW 7.7 km/h 5 km/h 52 % 0 mm 9.00 W/m2 CLR
17:44 -11.4 °C -16.6 °C 35001.1 hPa SW 7.7 km/h 3.9 km/h 53 % 0 mm 7.00 W/m2 CLR
17:48 -11.5 °C -16.6 °C 34997.7 hPa SW 6 km/h 3.1 km/h 53 % 0 mm 0.00 W/m2 CLR
17:53 -11.6 °C -16.6 °C 35004.5 hPa SW 6 km/h 4.7 km/h 54 % 0 mm 0.00 W/m2 CLR
17:59 -11.7 °C -16.7 °C 35004.5 hPa SW 6 km/h 2.9 km/h 54 % 0 mm 0.00 W/m2 CLR
18:03 -11.8 °C -16.7 °C 35004.5 hPa SW 5.1 km/h 2.9 km/h 54 % 0 mm 0.00 W/m2 CLR
18:09 -11.8 °C -16.7 °C 35007.9 hPa Calm     55 % 0 mm 0.00 W/m2 CLR
18:14 -12 °C -16.6 °C 35011.2 hPa Calm     56 % 0 mm 0.00 W/m2 CLR
18:18 -12.1 °C -16.7 °C 35014.6 hPa SW 6 km/h 4.7 km/h 56 % 0 mm 0.00 W/m2 CLR
18:24 -12.1 °C -16.8 °C 35014.6 hPa SW 6 km/h 2.1 km/h 56 % 0 mm 0.00 W/m2 CLR
18:29 -12.2 °C -16.7 °C 35018 hPa SW 6 km/h 2.9 km/h 57 % 0 mm 0.00 W/m2 CLR
18:34 -12.2 °C -16.7 °C 35021.4 hPa SW 6 km/h 4.3 km/h 57 % 0 mm 0.00 W/m2 CLR
18:39 -12.3 °C -16.8 °C 35021.4 hPa SW 6 km/h 3.4 km/h 57 % 0 mm 0.00 W/m2 CLR
18:44 -12.4 °C -16.9 °C 35021.4 hPa SW 9 km/h 4.3 km/h 57 % 0 mm 0.00 W/m2 CLR
18:49 -12.4 °C -16.8 °C 35021.4 hPa SW 6 km/h 3.9 km/h 58 % 0 mm 0.00 W/m2 CLR
18:53 -12.4 °C -16.8 °C 35024.8 hPa SW 6 km/h 4.2 km/h 58 % 0 mm 0.00 W/m2 CLR
18:58 -12.5 °C -16.9 °C 35024.8 hPa SW 6 km/h 3.7 km/h 58 % 0 mm 0.00 W/m2 CLR
19:03 -12.6 °C -16.8 °C 35024.8 hPa SW 6 km/h 3.1 km/h 59 % 0 mm 0.00 W/m2 CLR
19:08 -12.6 °C -16.8 °C 35024.8 hPa SW 6 km/h 4.7 km/h 59 % 0 mm 0.00 W/m2 CLR
19:13 -12.7 °C -16.9 °C 35024.8 hPa SW 6 km/h 2.9 km/h 59 % 0 mm 0.00 W/m2 CLR
19:19 -12.7 °C -16.9 °C 35024.8 hPa SW 9 km/h 5.5 km/h 59 % 0 mm 0.00 W/m2 CLR
19:23 -12.7 °C -16.8 °C 35024.8 hPa SW 9 km/h 6.4 km/h 60 % 0 mm 0.00 W/m2 CLR
19:28 -12.8 °C -16.9 °C 35024.8 hPa SW 9 km/h 6.3 km/h 60 % 0 mm 0.00 W/m2 CLR
19:34 -12.9 °C -17 °C 35028.2 hPa SW 9 km/h 6 km/h 60 % 0 mm 0.00 W/m2 CLR
19:38 -12.9 °C -16.9 °C 35024.8 hPa SW 9 km/h 7.6 km/h 61 % 0 mm 0.00 W/m2 CLR
19:43 -12.9 °C -16.8 °C 35028.2 hPa SW 9 km/h 4.7 km/h 62 % 0 mm 0.00 W/m2 CLR
19:49 -13 °C -16.9 °C 35028.2 hPa SW 9 km/h 4.7 km/h 61 % 0 mm 0.00 W/m2 CLR
19:53 -13 °C -17 °C 35028.2 hPa SW 9 km/h 5.1 km/h 61 % 0 mm 0.00 W/m2 CLR
19:58 -13.1 °C -17.1 °C 35034.9 hPa SW 7.7 km/h 5.5 km/h 61 % 0 mm 0.00 W/m2 CLR
20:04 -13.2 °C -17 °C 35038.3 hPa SW 9 km/h 6 km/h 62 % 0 mm 0.00 W/m2 CLR
20:09 -13.2 °C -17 °C 35041.7 hPa SW 9 km/h 6.3 km/h 62 % 0 mm 0.00 W/m2 CLR
20:13 -13.2 °C -17.1 °C 35041.7 hPa SW 10.3 km/h 8.5 km/h 62 % 0 mm 0.00 W/m2 CLR
20:19 -13.3 °C -17.1 °C 35045.1 hPa SW 12.9 km/h 9.8 km/h 62 % 0 mm 0.00 W/m2 CLR
20:24 -13.4 °C -17.1 °C 35045.1 hPa SW 10.3 km/h 8 km/h 63 % 0 mm 0.00 W/m2 CLR
20:28 -13.4 °C -17.1 °C 35048.5 hPa SW 9 km/h 5.1 km/h 63 % 0 mm 0.00 W/m2 CLR
20:34 -13.4 °C -17.1 °C 35048.5 hPa SW 9 km/h 5.6 km/h 63 % 0 mm 0.00 W/m2 CLR
20:39 -13.4 °C -17.1 °C 35048.5 hPa SW 9 km/h 6.3 km/h 63 % 0 mm 0.00 W/m2 CLR
20:43 -13.4 °C -17.1 °C 35051.9 hPa SW 9 km/h 6.4 km/h 63 % 0 mm 0.00 W/m2 CLR
20:49 -13.5 °C -17.2 °C 35051.9 hPa SW 9 km/h 5.1 km/h 63 % 0 mm 0.00 W/m2 CLR
20:54 -13.5 °C -17.1 °C 35048.5 hPa West 9 km/h 5.6 km/h 64 % 0 mm 0.00 W/m2 CLR
20:58 -13.5 °C -17.1 °C 35051.9 hPa West 9 km/h 6.4 km/h 64 % 0 mm 0.00 W/m2 CLR
21:03 -13.5 °C -17.1 °C 35051.9 hPa West 10.3 km/h 7.7 km/h 64 % 0 mm 0.00 W/m2 CLR
21:08 -13.5 °C -17.1 °C 35051.9 hPa WSW 10.3 km/h 8 km/h 64 % 0 mm 0.00 W/m2 CLR
21:13 -13.6 °C -17 °C 35055.3 hPa WSW 9 km/h 6.4 km/h 65 % 0 mm 0.00 W/m2 CLR
21:18 -13.6 °C -17 °C 35058.6 hPa WSW 9 km/h 4.7 km/h 65 % 0 mm 0.00 W/m2 CLR
21:23 -13.6 °C -17 °C 35058.6 hPa WSW 9 km/h 6.4 km/h 65 % 0 mm 0.00 W/m2 CLR
21:28 -13.6 °C -17.1 °C 35065.4 hPa WSW 9 km/h 5.5 km/h 65 % 0 mm 0.00 W/m2 CLR
21:33 -13.7 °C -17 °C 35072.2 hPa WSW 9 km/h 5.6 km/h 66 % 0 mm 0.00 W/m2 CLR
21:38 -13.7 °C -17 °C 35072.2 hPa WSW 9 km/h 6.3 km/h 66 % 0 mm 0.00 W/m2 CLR
21:44 -13.8 °C -17.1 °C 35072.2 hPa WSW 9 km/h 6 km/h 66 % 0 mm 0.00 W/m2 CLR
21:48 -13.8 °C -17 °C 35072.2 hPa WSW 9 km/h 4.3 km/h 67 % 0 mm 0.00 W/m2 CLR
21:53 -13.8 °C -17.1 °C 35075.6 hPa WSW 6 km/h 1.6 km/h 67 % 0 mm 0.00 W/m2 CLR
21:59 -13.9 °C -17.1 °C 35075.6 hPa Calm     67 % 0 mm 0.00 W/m2 CLR
22:03 -13.9 °C -17.1 °C 35075.6 hPa Calm     67 % 0 mm 0.00 W/m2 CLR
22:09 -13.9 °C -17.1 °C 35075.6 hPa Calm     67 % 0 mm 0.00 W/m2 CLR
22:14 -14 °C -17.2 °C 35079 hPa Calm     67 % 0 mm 0.00 W/m2 CLR
22:18 -14.1 °C -17.1 °C 35079 hPa Calm     68 % 0 mm 0.00 W/m2 CLR
22:24 -14.1 °C -17.3 °C 35082.3 hPa Calm     67 % 0 mm 0.00 W/m2 CLR
22:29 -14.1 °C -17.2 °C 35082.3 hPa Calm     68 % 0 mm 0.00 W/m2 CLR
22:33 -14.2 °C -17.3 °C 35082.3 hPa Calm     68 % 0 mm 0.00 W/m2 CLR
22:39 -14.3 °C -17.2 °C 35082.3 hPa Calm     69 % 0 mm 0.00 W/m2 CLR
22:44 -14.3 °C -17.1 °C 35082.3 hPa Calm     70 % 0 mm 0.00 W/m2 CLR
22:48 -14.4 °C -17.2 °C 35082.3 hPa Calm     70 % 0 mm 0.00 W/m2 CLR
22:54 -14.5 °C -17.2 °C 35082.3 hPa Calm     71 % 0 mm 0.00 W/m2 CLR
22:59 -14.6 °C -17.3 °C 35082.3 hPa Calm     71 % 0 mm 0.00 W/m2 CLR
23:03 -14.6 °C -17.3 °C 35082.3 hPa Calm     71 % 0 mm 0.00 W/m2 CLR
23:09 -14.7 °C -17.4 °C 35085.7 hPa Calm     71 % 0 mm 0.00 W/m2 CLR
23:14 -14.8 °C -17.4 °C 35082.3 hPa Calm     72 % 0 mm 0.00 W/m2 CLR
23:18 -14.9 °C -17.4 °C 35082.3 hPa Calm     72 % 0 mm 0.00 W/m2 CLR
23:24 -15.1 °C -17.5 °C 35082.3 hPa Calm     73 % 0 mm 0.00 W/m2 CLR
23:29 -15.1 °C -17.4 °C 35082.3 hPa Calm     74 % 0 mm 0.00 W/m2 CLR
23:34 -15.2 °C -17.4 °C 35085.7 hPa Calm     76 % 0 mm 0.00 W/m2 CLR
23:38 -15.3 °C -17.3 °C 35089.1 hPa Calm     77 % 0 mm 0.00 W/m2 CLR
23:43 -15.4 °C -17.3 °C 35089.1 hPa Calm     78 % 0 mm 0.00 W/m2 CLR
23:48 -15.4 °C -17.4 °C 35079 hPa Calm     78 % 0 mm 0.00 W/m2 CLR
23:53 -15.5 °C -17.4 °C 35082.3 hPa Calm     78 % 0 mm 0.00 W/m2 CLR
23:58 -15.6 °C -17.4 °C 35082.3 hPa Calm     79 % 0 mm 0.00 W/m2 CLR
Juneau County Weather
Compliments of Weather Underground - 3.5 mb